HOS Dominator — WDA6788 — position and weather

sailwx.info

Track history (hours):
 
Tides and Currents Weather Stations Pressure Air Temp Water Temp Dewpoint Dewpoint Depression Visibility Wind Speed Wind Dir Waves Ship Positions

HOS Dominator

Owner: Hornbeck Offshore Services, LLC, Covington, LA. More information available from US FCC via Universal Licensing System and Coast Guard Vessel Documentation Center.

Last reported at 2018-Feb-21 04:58 UTC. Time now 2018-Feb-21 05:12 UTC.
Position N 32°43' W 117°12'.

Length 80 m; draft 3.6 m.

Type: Cargo ship. MMSI: 369077000.

Date/timePositionNaut miles runAvg speedWind from/ knotsBaromVisibWave heightAir tempDewpointWater temp
2018-Feb-21 04:58N 32°43' W 117°12'1 0.3
2018-Feb-21 03:07N 32°43' W 117°12'0 2.3
2018-Feb-21 03:00N 32°43' W 117°12'5 5.9
2018-Feb-21 02:05N 32°39' W 117°16'210.7
2018-Feb-21 01:56N 32°40' W 117°17'410.4
2018-Feb-21 01:30N 32°44' W 117°20'510.3
2018-Feb-21 01:00N 32°48' W 117°23'510.1
2018-Feb-21 00:30N 32°52' W 117°27'0 0.4
2018-Feb-21 00:00N 32°52' W 117°27'0 0.0
2018-Feb-20 23:30N 32°52' W 117°27'0 0.0
2018-Feb-20 23:00N 32°52' W 117°27'0 0.0
2018-Feb-20 22:30N 32°52' W 117°27'0 0.0
2018-Feb-20 22:00N 32°52' W 117°27'0 0.0
2018-Feb-20 21:30N 32°52' W 117°27'0 0.0
2018-Feb-20 21:00N 32°52' W 117°27'0 0.0
2018-Feb-20 20:30N 32°52' W 117°27'0 0.0
2018-Feb-20 20:00N 32°52' W 117°27'0 0.0
2018-Feb-20 19:29N 32°52' W 117°27'0 0.0
2018-Feb-20 19:00N 32°52' W 117°27'3 6.6
2018-Feb-20 18:30N 32°49' W 117°24'5 9.9
2018-Feb-20 18:00N 32°45' W 117°21'  
2018-Feb-16 18:49N 32°42' W 117°19'3 9.4
2018-Feb-16 18:30N 32°44' W 117°21'5 9.4
2018-Feb-16 18:00N 32°48' W 117°24'4 8.9
2018-Feb-16 17:30N 32°52' W 117°27'0 0.1
2018-Feb-16 17:00N 32°52' W 117°27'0 0.0
2018-Feb-16 16:24N 32°52' W 117°27'0 0.0
2018-Feb-16 16:00N 32°52' W 117°27'0 0.0
2018-Feb-16 15:30N 32°52' W 117°27'0 0.0
2018-Feb-16 15:00N 32°52' W 117°27'0 0.0
2018-Feb-16 14:27N 32°52' W 117°27'0 0.0
2018-Feb-16 14:00N 32°52' W 117°27'0 0.0
2018-Feb-16 13:27N 32°52' W 117°27'0 0.0
2018-Feb-16 13:00N 32°52' W 117°27'0 0.0
2018-Feb-16 12:30N 32°52' W 117°27'0 0.0
2018-Feb-16 12:00N 32°52' W 117°27'0 0.0
2018-Feb-16 11:30N 32°52' W 117°27'0 0.0
2018-Feb-16 11:00N 32°52' W 117°27'1 2.6
2018-Feb-16 10:30N 32°51' W 117°26'5 9.9
2018-Feb-16 10:00N 32°47' W 117°22'5 9.8
2018-Feb-16 09:30N 32°43' W 117°19'6 0.8
2018-Feb-16 02:10N 32°43' W 117°12'1 7.2
2018-Feb-16 02:00N 32°43' W 117°13'5 8.3
2018-Feb-16 01:20N 32°37' W 117°16'5 9.9
2018-Feb-16 00:47N 32°36' W 117°22'0 0.8
2018-Feb-16 00:30N 32°36' W 117°22'0 0.3
2018-Feb-16 00:00N 32°36' W 117°22'0 0.0
2018-Feb-15 23:30N 32°36' W 117°22'0 0.0
2018-Feb-15 22:59N 32°36' W 117°22'0 0.0
2018-Feb-15 22:29N 32°36' W 117°22'0 0.0
2018-Feb-15 21:58N 32°36' W 117°22'0 0.0
2018-Feb-15 21:30N 32°36' W 117°22'0 0.2
2018-Feb-15 21:00N 32°37' W 117°22'0 0.0
2018-Feb-15 20:30N 32°37' W 117°22'0 0.0
2018-Feb-15 20:00N 32°37' W 117°22'0 0.0
2018-Feb-15 19:30N 32°37' W 117°22'0 0.0
2018-Feb-15 18:59N 32°37' W 117°22'0 0.2
2018-Feb-15 18:30N 32°36' W 117°22'10 7.1
2018-Feb-15 17:09N 32°43' W 117°13'1 0.3
2018-Feb-15 14:20N 32°43' W 117°12'6 7.4
2018-Feb-15 13:31N 32°38' W 117°16'0 6.3
2018-Feb-15 13:30N 32°38' W 117°16'7 9.2
2018-Feb-15 12:45N 32°41' W 117°23'2 9.8
2018-Feb-15 12:30N 32°42' W 117°25'5 9.8
2018-Feb-15 12:00N 32°45' W 117°30'5 9.9
2018-Feb-15 11:30N 32°48' W 117°34'510.1
2018-Feb-15 11:00N 32°51' W 117°39'510.4
2018-Feb-15 10:29N 32°55' W 117°44'510.1
2018-Feb-15 10:00N 32°58' W 117°49'5 9.8
2018-Feb-15 09:30N 33°02' W 117°53'5 9.9
2018-Feb-15 09:00N 33°06' W 117°55'26 3.7
2018-Feb-15 02:02N 33°22' W 118°19'1 5.0
2018-Feb-15 01:55N 33°22' W 118°20'19 0.4
2018-Feb-13 05:18N 33°12' W 118°01'3 9.3
2018-Feb-13 04:59N 33°10' W 117°58'4 9.2
2018-Feb-13 04:30N 33°08' W 117°54'5 9.1
2018-Feb-13 04:00N 33°05' W 117°49'4 9.0
2018-Feb-13 03:30N 33°03' W 117°45'5 9.0
2018-Feb-13 03:00N 32°60' W 117°40'5 9.3
2018-Feb-13 02:30N 32°57' W 117°36'5 9.5
2018-Feb-13 02:00N 32°55' W 117°31'5 9.3
2018-Feb-13 01:30N 32°52' W 117°27'0 0.1
2018-Feb-13 01:00N 32°52' W 117°27'0 0.0
2018-Feb-13 00:30N 32°52' W 117°27'0 0.0
2018-Feb-13 00:00N 32°52' W 117°27'0 0.0
2018-Feb-12 23:29N 32°52' W 117°27'0 0.0
2018-Feb-12 23:00N 32°52' W 117°27'0 0.0
2018-Feb-12 22:30N 32°52' W 117°27'0 0.0
2018-Feb-12 22:00N 32°52' W 117°27'0 0.0
2018-Feb-12 21:30N 32°52' W 117°27'0 0.0
2018-Feb-12 21:00N 32°52' W 117°27'0 0.0
2018-Feb-12 20:30N 32°52' W 117°27'0 0.0
2018-Feb-12 20:00N 32°52' W 117°27'0 0.0
2018-Feb-12 19:30N 32°52' W 117°27'0 0.7
2018-Feb-12 19:00N 32°52' W 117°26'5 9.4
2018-Feb-12 18:30N 32°48' W 117°23'5 9.4
2018-Feb-12 18:00N 32°44' W 117°20'5 9.6
2018-Feb-12 17:30N 32°40' W 117°17'3 4.1
2018-Feb-12 16:44N 32°42' W 117°14'  
Track history (hours):
 
Tides and Currents Weather Stations Pressure Air Temp Water Temp Dewpoint Dewpoint Depression Visibility Wind Speed Wind Dir Waves Ship Positions

HOS Dominator

Owner: Hornbeck Offshore Services, LLC, Covington, LA. More information available from US FCC via Universal Licensing System and Coast Guard Vessel Documentation Center.

Last reported at 2018-Feb-21 04:58 UTC. Time now 2018-Feb-21 05:12 UTC.
Position N 32°43' W 117°12'.

Length 80 m; draft 3.6 m.

Type: Cargo ship. MMSI: 369077000.

Date/timePositionNaut miles runAvg speedWind from/ knotsBaromVisibWave heightAir tempDewpointWater temp
2018-Feb-21 04:58N 32°43' W 117°12'1 0.3
2018-Feb-21 03:07N 32°43' W 117°12'0 2.3
2018-Feb-21 03:00N 32°43' W 117°12'5 5.9
2018-Feb-21 02:05N 32°39' W 117°16'210.7
2018-Feb-21 01:56N 32°40' W 117°17'410.4
2018-Feb-21 01:30N 32°44' W 117°20'510.3
2018-Feb-21 01:00N 32°48' W 117°23'510.1
2018-Feb-21 00:30N 32°52' W 117°27'0 0.4
2018-Feb-21 00:00N 32°52' W 117°27'0 0.0
2018-Feb-20 23:30N 32°52' W 117°27'0 0.0
2018-Feb-20 23:00N 32°52' W 117°27'0 0.0
2018-Feb-20 22:30N 32°52' W 117°27'0 0.0
2018-Feb-20 22:00N 32°52' W 117°27'0 0.0
2018-Feb-20 21:30N 32°52' W 117°27'0 0.0
2018-Feb-20 21:00N 32°52' W 117°27'0 0.0
2018-Feb-20 20:30N 32°52' W 117°27'0 0.0
2018-Feb-20 20:00N 32°52' W 117°27'0 0.0
2018-Feb-20 19:29N 32°52' W 117°27'0 0.0
2018-Feb-20 19:00N 32°52' W 117°27'3 6.6
2018-Feb-20 18:30N 32°49' W 117°24'5 9.9
2018-Feb-20 18:00N 32°45' W 117°21'  
2018-Feb-16 18:49N 32°42' W 117°19'3 9.4
2018-Feb-16 18:30N 32°44' W 117°21'5 9.4
2018-Feb-16 18:00N 32°48' W 117°24'4 8.9
2018-Feb-16 17:30N 32°52' W 117°27'0 0.1
2018-Feb-16 17:00N 32°52' W 117°27'0 0.0
2018-Feb-16 16:24N 32°52' W 117°27'0 0.0
2018-Feb-16 16:00N 32°52' W 117°27'0 0.0
2018-Feb-16 15:30N 32°52' W 117°27'0 0.0
2018-Feb-16 15:00N 32°52' W 117°27'0 0.0
2018-Feb-16 14:27N 32°52' W 117°27'0 0.0
2018-Feb-16 14:00N 32°52' W 117°27'0 0.0
2018-Feb-16 13:27N 32°52' W 117°27'0 0.0
2018-Feb-16 13:00N 32°52' W 117°27'0 0.0
2018-Feb-16 12:30N 32°52' W 117°27'0 0.0
2018-Feb-16 12:00N 32°52' W 117°27'0 0.0
2018-Feb-16 11:30N 32°52' W 117°27'0 0.0
2018-Feb-16 11:00N 32°52' W 117°27'1 2.6
2018-Feb-16 10:30N 32°51' W 117°26'5 9.9
2018-Feb-16 10:00N 32°47' W 117°22'5 9.8
2018-Feb-16 09:30N 32°43' W 117°19'6 0.8
2018-Feb-16 02:10N 32°43' W 117°12'1 7.2
2018-Feb-16 02:00N 32°43' W 117°13'5 8.3
2018-Feb-16 01:20N 32°37' W 117°16'5 9.9
2018-Feb-16 00:47N 32°36' W 117°22'0 0.8
2018-Feb-16 00:30N 32°36' W 117°22'0 0.3
2018-Feb-16 00:00N 32°36' W 117°22'0 0.0
2018-Feb-15 23:30N 32°36' W 117°22'0 0.0
2018-Feb-15 22:59N 32°36' W 117°22'0 0.0
2018-Feb-15 22:29N 32°36' W 117°22'0 0.0
2018-Feb-15 21:58N 32°36' W 117°22'0 0.0
2018-Feb-15 21:30N 32°36' W 117°22'0 0.2
2018-Feb-15 21:00N 32°37' W 117°22'0 0.0
2018-Feb-15 20:30N 32°37' W 117°22'0 0.0
2018-Feb-15 20:00N 32°37' W 117°22'0 0.0
2018-Feb-15 19:30N 32°37' W 117°22'0 0.0
2018-Feb-15 18:59N 32°37' W 117°22'0 0.2
2018-Feb-15 18:30N 32°36' W 117°22'10 7.1
2018-Feb-15 17:09N 32°43' W 117°13'1 0.3
2018-Feb-15 14:20N 32°43' W 117°12'6 7.4
2018-Feb-15 13:31N 32°38' W 117°16'0 6.3
2018-Feb-15 13:30N 32°38' W 117°16'7 9.2
2018-Feb-15 12:45N 32°41' W 117°23'2 9.8
2018-Feb-15 12:30N 32°42' W 117°25'5 9.8
2018-Feb-15 12:00N 32°45' W 117°30'5 9.9
2018-Feb-15 11:30N 32°48' W 117°34'510.1
2018-Feb-15 11:00N 32°51' W 117°39'510.4
2018-Feb-15 10:29N 32°55' W 117°44'510.1
2018-Feb-15 10:00N 32°58' W 117°49'5 9.8
2018-Feb-15 09:30N 33°02' W 117°53'5 9.9
2018-Feb-15 09:00N 33°06' W 117°55'26 3.7
2018-Feb-15 02:02N 33°22' W 118°19'1 5.0
2018-Feb-15 01:55N 33°22' W 118°20'19 0.4
2018-Feb-13 05:18N 33°12' W 118°01'3 9.3
2018-Feb-13 04:59N 33°10' W 117°58'4 9.2
2018-Feb-13 04:30N 33°08' W 117°54'5 9.1
2018-Feb-13 04:00N 33°05' W 117°49'4 9.0
2018-Feb-13 03:30N 33°03' W 117°45'5 9.0
2018-Feb-13 03:00N 32°60' W 117°40'5 9.3
2018-Feb-13 02:30N 32°57' W 117°36'5 9.5
2018-Feb-13 02:00N 32°55' W 117°31'5 9.3
2018-Feb-13 01:30N 32°52' W 117°27'0 0.1
2018-Feb-13 01:00N 32°52' W 117°27'0 0.0
2018-Feb-13 00:30N 32°52' W 117°27'0 0.0
2018-Feb-13 00:00N 32°52' W 117°27'0 0.0
2018-Feb-12 23:29N 32°52' W 117°27'0 0.0
2018-Feb-12 23:00N 32°52' W 117°27'0 0.0
2018-Feb-12 22:30N 32°52' W 117°27'0 0.0
2018-Feb-12 22:00N 32°52' W 117°27'0 0.0
2018-Feb-12 21:30N 32°52' W 117°27'0 0.0
2018-Feb-12 21:00N 32°52' W 117°27'0 0.0
2018-Feb-12 20:30N 32°52' W 117°27'0 0.0
2018-Feb-12 20:00N 32°52' W 117°27'0 0.0
2018-Feb-12 19:30N 32°52' W 117°27'0 0.7
2018-Feb-12 19:00N 32°52' W 117°26'5 9.4
2018-Feb-12 18:30N 32°48' W 117°23'5 9.4
2018-Feb-12 18:00N 32°44' W 117°20'5 9.6
2018-Feb-12 17:30N 32°40' W 117°17'3 4.1
2018-Feb-12 16:44N 32°42' W 117°14'  

Dump ship's entire track history